Time;durP1;ratioP1;P1;durP2;ratioP2;P2;SDS_P1;SDS_P2;PMS_P1;PMS_P2;Temp;Humidity;BMP_temperature;BMP_pressure;BME280_temperature;BME280_humidity;BME280_pressure;Samples;Min_cycle;Max_cycle;Signal;HPM_P1;HPM_P2
2022/11/16 00:01:07;;;;;;;13.88;6.40;;;;;;;0.07;80.05;99201.88;5027718;28;20124;-52
2022/11/16 00:03:33;;;;;;;15.27;7.30;;;;;;;0.02;79.96;99201.88;5038585;28;20128;-54
2022/11/16 00:06:01;;;;;;;13.10;6.45;;;;;;;-0.01;80.22;99197.66;5019292;28;20041;-52
2022/11/16 00:08:29;;;;;;;18.35;7.00;;;;;;;-0.08;80.01;99195.06;5036124;28;20052;-55
2022/11/16 00:10:55;;;;;;;16.48;7.20;;;;;;;-0.04;79.68;99202.75;5018090;28;20414;-49
2022/11/16 00:13:20;;;;;;;13.88;7.13;;;;;;;-0.03;80.12;99196.78;5037301;28;20035;-51
2022/11/16 00:15:54;;;;;;;15.20;6.78;;;;;;;-0.03;80.04;99195.94;5020734;28;20829;-50
2022/11/16 00:18:21;;;;;;;15.88;6.88;;;;;;;-0.11;80.07;99187.44;5019949;28;20513;-53
2022/11/16 00:20:46;;;;;;;12.85;6.43;;;;;;;-0.06;79.75;99201.06;5017479;28;20037;-51
2022/11/16 00:23:12;;;;;;;16.70;7.03;;;;;;;-0.13;80.05;99187.41;5019642;28;20484;-50
2022/11/16 00:25:39;;;;;;;13.05;5.78;;;;;;;0.02;80.11;99201.03;5018569;28;20109;-49
2022/11/16 00:28:04;;;;;;;11.57;6.00;;;;;;;0.02;79.83;99207.00;5017282;28;20053;-53
2022/11/16 00:30:30;;;;;;;18.05;6.93;;;;;;;-0.17;79.83;99172.94;5009850;28;20578;-51
2022/11/16 00:33:00;;;;;;;13.65;6.40;;;;;;;-0.28;79.69;99154.22;5025019;28;20154;-49
2022/11/16 00:35:26;;;;;;;10.43;5.72;;;;;;;0.00;79.72;99207.00;5023671;28;20038;-50
2022/11/16 00:37:53;;;;;;;11.27;5.70;;;;;;;0.04;79.42;99207.88;5030109;28;20524;-50
2022/11/16 00:40:18;;;;;;;14.68;6.28;;;;;;;0.03;79.62;99203.59;5031171;28;20069;-49
2022/11/16 00:42:44;;;;;;;13.57;5.80;;;;;;;0.02;79.65;99207.00;5035742;28;20053;-53
2022/11/16 00:45:10;;;;;;;12.73;5.80;;;;;;;0.01;79.63;99202.75;5031624;28;20045;-52
2022/11/16 00:47:37;;;;;;;12.88;5.40;;;;;;;-0.01;79.34;99209.56;5048015;28;20069;-49
2022/11/16 00:50:03;;;;;;;12.73;5.78;;;;;;;-0.15;79.65;99175.47;5037186;28;20061;-50
2022/11/16 00:52:29;;;;;;;16.23;5.78;;;;;;;0.07;79.13;99207.84;5028211;28;20076;-52
2022/11/16 00:54:56;;;;;;;17.08;5.28;;;;;;;0.08;79.10;99207.00;5028077;28;20033;-53
2022/11/16 00:57:22;;;;;;;14.68;5.60;;;;;;;0.10;79.20;99212.13;4995124;28;20041;-51
2022/11/16 00:59:49;;;;;;;12.40;4.60;;;;;;;0.05;79.10;99212.13;5027155;28;20428;-53
2022/11/16 01:02:15;;;;;;;13.80;5.45;;;;;;;-0.01;79.12;99209.56;5031322;28;20041;-47
2022/11/16 01:04:44;;;;;;;10.82;5.22;;;;;;;-0.21;78.90;99171.22;5024060;28;20135;-53
2022/11/16 01:07:11;;;;;;;10.13;5.05;;;;;;;-0.06;78.59;99194.25;5037693;28;20574;-50
2022/11/16 01:09:36;;;;;;;10.00;4.78;;;;;;;-0.25;78.74;99166.97;5046913;28;20041;-50
2022/11/16 01:12:09;;;;;;;13.50;4.47;;;;;;;-0.06;78.46;99201.06;4995187;28;20091;-49
2022/11/16 01:14:39;;;;;;;10.82;4.82;;;;;;;-0.10;78.34;99200.19;5044424;28;20048;-49
2022/11/16 01:17:06;;;;;;;9.27;4.63;;;;;;;-0.11;78.51;99198.50;5065022;28;20083;-50
2022/11/16 01:19:32;;;;;;;9.23;4.45;;;;;;;-0.17;78.28;99192.53;5052290;28;20418;-52
2022/11/16 01:21:59;;;;;;;12.23;4.80;;;;;;;-0.18;78.64;99199.34;5053385;28;20048;-49
2022/11/16 01:24:26;;;;;;;14.00;4.85;;;;;;;-0.19;78.25;99199.31;5034502;28;20095;-49
2022/11/16 01:26:56;;;;;;;12.90;5.22;;;;;;;-0.20;77.97;99203.59;5033180;28;20037;-50
2022/11/16 01:29:24;;;;;;;12.25;4.95;;;;;;;-0.17;77.94;99208.72;5032761;28;20041;-50
2022/11/16 01:31:55;;;;;;;13.18;4.90;;;;;;;-0.19;77.99;99202.72;5016066;28;20045;-52
2022/11/16 01:34:21;;;;;;;13.18;5.32;;;;;;;-0.18;77.82;99206.16;5032948;28;20041;-48
2022/11/16 01:36:49;;;;;;;9.82;5.10;;;;;;;-0.20;77.65;99203.59;5047420;28;20069;-48
2022/11/16 01:39:16;;;;;;;12.00;4.70;;;;;;;-0.22;77.61;99195.09;5031593;28;20123;-47
2022/11/16 01:41:50;;;;;;;9.68;4.50;;;;;;;-0.41;77.74;99167.81;5028176;28;20038;-51
2022/11/16 01:44:31;;;;;;;12.13;5.05;;;;;;;-0.20;77.63;99207.84;5028157;28;20140;-50
2022/11/16 01:47:08;;;;;;;11.38;4.80;;;;;;;-0.19;77.12;99212.94;5011550;28;20044;-53
2022/11/16 01:49:37;;;;;;;12.68;4.72;;;;;;;-0.38;77.05;99177.19;5045220;28;20068;-51
2022/11/16 01:52:09;;;;;;;14.98;5.03;;;;;;;-0.24;76.85;99206.13;5031100;28;20509;-49
2022/11/16 01:54:38;;;;;;;8.90;4.65;;;;;;;-0.25;77.05;99212.94;5047730;28;20505;-49
2022/11/16 01:57:05;;;;;;;14.90;4.93;;;;;;;-0.24;77.22;99211.25;5031136;28;20103;-52
2022/11/16 01:59:38;;;;;;;10.80;4.95;;;;;;;-0.59;76.69;99175.44;5029628;28;20416;-51
2022/11/16 02:02:08;;;;;;;10.48;4.72;;;;;;;-0.31;76.90;99212.06;5045508;28;20444;-52
2022/11/16 02:04:34;;;;;;;12.60;4.82;;;;;;;-0.32;77.07;99215.50;5013762;28;20045;-52
2022/11/16 02:07:16;;;;;;;12.75;4.90;;;;;;;-0.31;76.87;99235.91;5030946;28;20087;-49
2022/11/16 02:10:03;;;;;;;16.13;4.90;;;;;;;-0.32;76.84;99234.22;5037815;28;20504;-49
2022/11/16 02:13:10;;;;;;;6.70;4.15;;;;;;;-0.37;76.74;99232.53;5034936;28;20041;-50
2022/11/16 02:15:55;;;;;;;10.10;4.57;;;;;;;-0.37;76.79;99235.06;5027790;28;20064;-48
2022/11/16 02:18:36;;;;;;;9.65;4.25;;;;;;;-0.41;76.74;99231.63;5030963;28;20424;-47
2022/11/16 02:21:11;;;;;;;11.82;4.50;;;;;;;-0.39;76.35;99232.50;5030752;28;20052;-51
2022/11/16 02:23:49;;;;;;;13.40;4.70;;;;;;;-0.48;76.33;99233.34;5030710;28;20041;-47
2022/11/16 02:26:33;;;;;;;8.68;3.95;;;;;;;-0.50;76.54;99240.13;5047461;28;20064;-53
2022/11/16 02:29:44;;;;;;;12.15;4.60;;;;;;;-0.52;76.38;99246.06;5031158;28;20175;-51
2022/11/16 02:32:24;;;;;;;10.15;4.68;;;;;;;-0.58;76.12;99235.88;5030102;28;20053;-49
2022/11/16 02:34:55;;;;;;;11.80;4.03;;;;;;;-0.65;75.96;99241.78;5049748;28;20049;-51
2022/11/16 02:37:23;;;;;;;9.82;4.07;;;;;;;-0.65;76.12;99241.78;5032077;28;20163;-53
2022/11/16 02:39:54;;;;;;;9.93;3.78;;;;;;;-0.67;76.17;99239.22;5047079;28;20136;-49
2022/11/16 02:42:48;;;;;;;14.05;4.25;;;;;;;-0.86;75.88;99204.28;5030301;28;20357;-52
2022/11/16 02:45:19;;;;;;;11.02;4.72;;;;;;;-0.69;75.75;99237.53;5024578;28;20053;-48
2022/11/16 02:47:46;;;;;;;9.63;4.13;;;;;;;-1.03;75.86;99176.16;5030509;28;20539;-51
2022/11/16 02:50:17;;;;;;;10.88;3.83;;;;;;;-0.71;75.50;99246.88;5046869;28;20044;-51
2022/11/16 02:52:44;;;;;;;9.80;3.97;;;;;;;-0.77;75.35;99244.28;5014169;28;20049;-52
2022/11/16 02:55:10;;;;;;;9.55;3.95;;;;;;;-0.79;75.32;99244.31;5046648;28;20080;-50
2022/11/16 02:57:45;;;;;;;9.27;3.55;;;;;;;-0.81;75.62;99253.66;5013638;28;20041;-52
2022/11/16 03:00:18;;;;;;;8.40;3.90;;;;;;;-0.82;75.48;99259.59;5030326;28;20045;-50
2022/11/16 03:02:55;;;;;;;9.48;3.55;;;;;;;-0.83;75.34;99254.47;5030241;28;20415;-54
2022/11/16 03:05:32;;;;;;;7.90;3.58;;;;;;;-0.91;75.26;99244.25;5029705;28;20064;-50
2022/11/16 03:08:23;;;;;;;10.55;3.75;;;;;;;-0.84;75.51;99255.34;5014088;28;20528;-50
2022/11/16 03:13:40;;;;;;;8.90;4.30;;;;;;;-0.85;75.42;99262.16;5035903;28;20708;-53
2022/11/16 03:16:12;;;;;;;8.85;3.88;;;;;;;-0.82;75.44;99264.69;5016505;28;20056;-52
2022/11/16 03:18:39;;;;;;;10.60;3.63;;;;;;;-0.81;75.38;99265.56;5050966;28;20037;-52
2022/11/16 03:21:15;;;;;;;6.97;3.92;;;;;;;-1.02;75.33;99235.69;5033159;28;20075;-54
2022/11/16 03:23:44;;;;;;;9.90;3.58;;;;;;;-0.83;75.05;99265.53;5033096;28;20045;-51
2022/11/16 03:26:12;;;;;;;8.68;3.40;;;;;;;-0.83;75.17;99259.56;5049653;28;20048;-52
2022/11/16 03:28:47;;;;;;;9.63;3.67;;;;;;;-1.20;75.17;99202.47;5032842;28;20097;-50
2022/11/16 03:31:19;;;;;;;10.15;3.72;;;;;;;-1.26;74.96;99203.28;5050549;28;20479;-50
2022/11/16 03:33:49;;;;;;;12.02;3.88;;;;;;;-0.95;75.07;99268.03;5032962;28;20535;-55
2022/11/16 03:36:23;;;;;;;;;;;;;;;-0.99;74.69;99267.16;5047981;28;20493;-49
2022/11/16 03:38:51;;;;;;;5.38;3.22;;;;;;;-1.24;74.89;99239.81;4993589;28;19917;-48
2022/11/16 03:41:21;;;;;;;11.38;3.45;;;;;;;-1.11;74.87;99277.31;5009730;28;20176;-49
2022/11/16 03:43:48;;;;;;;5.70;3.17;;;;;;;-1.14;74.98;99273.88;5009681;28;20567;-49
2022/11/16 03:46:15;;;;;;;8.82;3.25;;;;;;;-1.16;74.98;99273.88;4993222;28;20187;-53
2022/11/16 03:48:42;;;;;;;9.30;3.63;;;;;;;-1.13;74.88;99270.50;5025957;28;20049;-51
2022/11/16 03:51:15;;;;;;;8.77;3.70;;;;;;;-1.17;74.95;99274.72;5042785;28;20544;-53
2022/11/16 03:53:41;;;;;;;8.15;3.38;;;;;;;-1.21;75.17;99278.13;5029163;28;20049;-55
2022/11/16 03:56:09;;;;;;;10.88;3.53;;;;;;;-1.21;74.99;99270.47;5045267;28;20060;-53
2022/11/16 03:58:37;;;;;;;6.07;3.45;;;;;;;-1.22;75.07;99283.19;5030243;28;20037;-54
2022/11/16 04:01:03;;;;;;;7.70;3.00;;;;;;;-1.24;74.99;99279.78;5045438;28;20045;-53
2022/11/16 04:03:30;;;;;;;11.10;3.70;;;;;;;-1.19;75.08;99278.94;5049688;28;20621;-51
2022/11/16 04:25:24;;;;;;;10.65;3.40;;;;;;;-1.23;74.34;99264.50;5012011;28;20045;-54
2022/11/16 04:38:50;;;;;;;9.02;3.50;;;;;;;-0.95;74.18;99303.78;5009825;28;20046;-53
2022/11/16 04:44:03;;;;;;;8.60;4.00;;;;;;;-0.93;74.01;99307.16;5010089;28;20053;-52
2022/11/16 04:49:13;;;;;;;11.90;4.03;;;;;;;-0.97;73.70;99308.00;5008817;28;20568;-54
2022/11/16 04:51:39;;;;;;;8.50;3.65;;;;;;;-1.00;73.69;99303.75;5010384;28;20057;-55
2022/11/16 04:54:05;;;;;;;9.50;3.88;;;;;;;-1.16;73.46;99291.75;5028278;28;20041;-47
2022/11/16 04:56:31;;;;;;;8.95;4.07;;;;;;;-1.00;73.58;99313.09;5028092;28;20556;-52
2022/11/16 04:58:57;;;;;;;14.30;4.18;;;;;;;-1.10;73.59;99304.50;5027791;28;20095;-47
2022/11/16 05:02:06;;;;;;;5.60;3.40;;;;;;;-1.17;73.65;99312.97;5013823;28;20041;-50
2022/11/16 05:04:09;;;;;;;9.75;3.80;;;;;;;-1.21;73.78;99318.06;5047834;28;20077;-52
2022/11/16 05:06:36;;;;;;;9.98;3.60;;;;;;;-1.30;73.85;99314.59;5014963;28;20071;-52
2022/11/16 05:09:02;;;;;;;10.10;3.95;;;;;;;-1.39;74.00;99314.53;5044474;28;20079;-50
2022/11/16 05:11:28;;;;;;;7.93;3.80;;;;;;;-1.47;74.05;99322.97;5027552;28;20041;-47
2022/11/16 05:13:54;;;;;;;9.82;3.67;;;;;;;-1.54;74.22;99321.19;5044682;28;20128;-49
2022/11/16 05:16:20;;;;;;;12.73;4.80;;;;;;;-1.64;74.51;99325.38;5028217;28;20095;-49
2022/11/16 05:20:59;;;;;;;10.18;4.07;;;;;;;-1.74;74.57;99329.53;5027998;28;20049;-51
2022/11/16 05:21:35;;;;;;;10.07;4.30;;;;;;;-2.04;74.55;99288.47;5014523;28;20087;-49
2022/11/16 05:26:46;;;;;;;13.52;4.22;;;;;;;-1.96;74.79;99325.09;5027736;28;20088;-53
2022/11/16 05:29:13;;;;;;;16.67;5.30;;;;;;;-2.03;75.47;99315.66;4994862;28;20501;-51
2022/11/16 05:31:39;;;;;;;14.80;4.43;;;;;;;-2.05;75.28;99314.81;5027407;28;20045;-53
2022/11/16 05:34:05;;;;;;;12.15;4.25;;;;;;;-2.06;75.60;99327.53;5027640;28;20049;-51
2022/11/16 05:36:31;;;;;;;10.57;4.03;;;;;;;-2.26;75.43;99300.16;5011269;28;20037;-48
2022/11/16 05:38:57;;;;;;;14.27;4.22;;;;;;;-2.21;75.61;99318.91;5029516;28;20629;-51
2022/11/16 05:41:26;;;;;;;15.18;4.35;;;;;;;-2.05;75.71;99336.88;5044246;28;20041;-52
2022/11/16 05:43:54;;;;;;;10.10;4.05;;;;;;;-2.07;75.78;99341.09;4994504;28;20212;-52
2022/11/16 05:46:21;;;;;;;9.63;4.45;;;;;;;-2.03;75.73;99346.22;5011015;28;20428;-51
2022/11/16 05:48:47;;;;;;;15.13;4.25;;;;;;;-2.04;75.65;99344.50;5027137;28;20116;-50
2022/11/16 05:51:14;;;;;;;7.63;4.03;;;;;;;-2.23;75.87;99329.88;5028570;28;20597;-52
2022/11/16 05:53:40;;;;;;;14.18;4.53;;;;;;;-2.04;75.80;99353.88;5027666;28;20140;-51
2022/11/16 05:56:06;;;;;;;8.18;4.03;;;;;;;-2.07;75.81;99349.59;5027671;28;20037;-51
2022/11/16 05:58:35;;;;;;;11.63;4.20;;;;;;;-2.05;75.91;99354.69;5011355;28;20052;-53
2022/11/16 06:01:01;;;;;;;6.90;4.13;;;;;;;-2.25;75.95;99322.22;5027522;28;20492;-49
2022/11/16 06:03:28;;;;;;;14.68;4.80;;;;;;;-2.08;76.00;99352.09;5031101;28;20045;-49
2022/11/16 06:05:55;;;;;;;9.73;3.97;;;;;;;-2.07;76.18;99344.50;5047763;28;20063;-52
2022/11/16 06:08:23;;;;;;;10.63;4.20;;;;;;;-2.03;75.98;99358.94;5031310;28;20052;-52
2022/11/16 06:10:52;;;;;;;8.85;4.28;;;;;;;-2.02;76.06;99357.25;5031083;28;20814;-48
2022/11/16 06:13:18;;;;;;;17.35;4.70;;;;;;;-2.00;76.04;99363.25;5030988;28;20094;-51
2022/11/16 06:15:44;;;;;;;10.60;4.10;;;;;;;-2.00;75.80;99356.47;5047319;28;20044;-51
2022/11/16 06:18:11;;;;;;;7.38;3.83;;;;;;;-1.93;75.98;99363.31;5030958;28;20041;-54
2022/11/16 06:20:38;;;;;;;10.00;4.00;;;;;;;-1.75;75.87;99358.41;5031730;28;20052;-54
2022/11/16 06:23:05;;;;;;;13.35;3.58;;;;;;;-1.27;75.49;99361.34;5014105;28;20594;-52
2022/11/16 06:25:32;;;;;;;8.75;3.90;;;;;;;-1.00;74.68;99359.00;5013923;28;20074;-53
2022/11/16 06:27:58;;;;;;;8.02;3.80;;;;;;;-1.07;74.17;99357.25;5014432;28;20045;-48
2022/11/16 06:30:25;;;;;;;8.18;3.55;;;;;;;-1.12;74.15;99359.78;5029396;28;20329;-54
2022/11/16 06:32:51;;;;;;;16.75;4.20;;;;;;;-1.05;73.95;99356.44;5012065;28;20087;-50
2022/11/16 06:35:17;;;;;;;13.20;5.00;;;;;;;-0.99;73.67;99332.63;5030266;28;20037;-47
2022/11/16 06:37:43;;;;;;;10.82;4.45;;;;;;;-0.04;72.33;99339.84;5023018;28;20054;-50
2022/11/16 06:40:10;;;;;;;14.35;5.25;;;;;;;0.33;71.08;99356.97;4973000;28;20080;-51
2022/11/16 06:42:40;;;;;;;11.40;3.88;;;;;;;0.41;70.55;99367.22;5034901;28;20041;-51
2022/11/16 06:45:09;;;;;;;10.27;4.05;;;;;;;0.68;70.24;99356.97;5020038;28;20041;-52
2022/11/16 06:47:39;;;;;;;11.07;4.25;;;;;;;1.29;68.99;99359.47;5004554;28;20045;-50
2022/11/16 06:50:06;;;;;;;7.28;4.13;;;;;;;1.84;67.99;99331.94;5005443;28;20045;-53
2022/11/16 06:52:33;;;;;;;13.77;4.80;;;;;;;2.39;67.07;99353.00;5025945;28;20045;-53
2022/11/16 06:54:59;;;;;;;12.43;4.47;;;;;;;3.06;65.46;99352.44;5025523;28;20049;-52
2022/11/16 06:57:24;;;;;;;11.15;5.50;;;;;;;3.80;64.77;99355.91;5021692;28;20121;-52
2022/11/16 06:59:50;;;;;;;11.65;4.93;;;;;;;4.51;61.99;99354.88;5020483;28;20041;-54
2022/11/16 07:02:20;;;;;;;11.45;4.90;;;;;;;4.86;60.76;99346.63;5005871;28;20158;-53
2022/11/16 07:04:46;;;;;;;11.45;4.65;;;;;;;5.03;60.03;99348.88;5003402;28;20076;-52
2022/11/16 07:07:14;;;;;;;11.85;5.05;;;;;;;5.01;58.99;99350.66;5002720;28;20037;-52
2022/11/16 07:09:41;;;;;;;9.75;5.10;;;;;;;4.75;60.00;99351.09;5023893;28;20057;-50
2022/11/16 07:12:07;;;;;;;9.90;5.07;;;;;;;4.57;60.47;99347.06;5019577;28;20041;-49
2022/11/16 07:14:37;;;;;;;14.65;4.78;;;;;;;4.46;60.48;99322.38;5019790;28;20144;-53
2022/11/16 07:17:05;;;;;;;15.27;6.57;;;;;;;4.93;59.38;99361.06;5019140;28;20509;-55
2022/11/16 07:19:30;;;;;;;13.63;5.75;;;;;;;5.29;58.81;99335.53;5020344;28;20088;-55
2022/11/16 07:21:58;;;;;;;14.27;6.25;;;;;;;5.60;57.08;99346.13;5020219;28;20124;-54
2022/11/16 07:24:25;;;;;;;12.25;5.85;;;;;;;5.82;56.14;99349.97;5018935;28;20133;-55
2022/11/16 07:26:51;;;;;;;11.05;5.68;;;;;;;5.90;55.63;99345.53;5019129;28;20128;-53
2022/11/16 07:29:21;;;;;;;14.60;6.15;;;;;;;6.09;55.71;99348.56;5025780;28;20128;-56
2022/11/16 07:32:07;;;;;;;16.75;6.35;;;;;;;6.35;54.81;99333.34;5013134;28;20087;-52
2022/11/16 07:34:53;;;;;;;16.35;7.20;;;;;;;6.59;53.55;99358.63;5020078;28;20463;-54
2022/11/16 07:37:19;;;;;;;13.38;7.20;;;;;;;6.65;53.25;99348.13;5022683;28;20049;-50
2022/11/16 07:39:45;;;;;;;15.98;7.10;;;;;;;6.48;53.40;99349.41;4991221;28;20037;-52
2022/11/16 07:42:12;;;;;;;16.40;7.45;;;;;;;6.43;54.38;99349.53;5029152;28;20040;-50
2022/11/16 07:44:58;;;;;;;15.77;7.30;;;;;;;6.58;53.88;99350.91;5045467;28;20525;-48
2022/11/16 07:47:24;;;;;;;14.10;6.50;;;;;;;6.82;53.49;99347.72;5044015;28;20045;-57
2022/11/16 07:49:50;;;;;;;13.07;6.03;;;;;;;6.84;52.80;99361.47;5029562;28;20119;-50
2022/11/16 07:52:18;;;;;;;19.25;5.75;;;;;;;7.17;52.70;99358.00;5012965;28;20050;-56
2022/11/16 07:54:53;;;;;;;12.68;6.00;;;;;;;7.29;51.85;99356.00;5010288;28;20044;-50
2022/11/16 07:57:22;;;;;;;;;;;;;;;7.16;53.01;99358.06;5028890;28;20090;-53
2022/11/16 07:59:50;;;;;;;14.80;6.18;;;;;;;6.92;55.61;99323.34;5025753;28;20432;-58
2022/11/16 08:02:16;;;;;;;12.10;6.43;;;;;;;6.96;57.66;99358.53;5031339;28;20120;-54
2022/11/16 08:04:42;;;;;;;12.02;6.00;;;;;;;6.98;59.73;99363.69;5012043;28;20729;-51
2022/11/16 08:07:10;;;;;;;12.55;6.30;;;;;;;7.22;58.83;99358.75;4995126;28;20072;-52
2022/11/16 08:09:43;;;;;;;15.68;6.18;;;;;;;6.90;58.64;99358.72;5016963;28;20041;-54
2022/11/16 08:12:13;;;;;;;11.25;5.55;;;;;;;6.93;59.72;99353.47;5028182;28;20049;-53
2022/11/16 08:14:39;;;;;;;10.40;5.65;;;;;;;7.60;57.43;99333.59;5012213;28;20060;-54
2022/11/16 08:17:06;;;;;;;12.35;5.63;;;;;;;8.09;55.41;99336.47;5028516;28;20520;-55
2022/11/16 08:19:32;;;;;;;10.90;5.95;;;;;;;8.52;54.46;99342.09;5025593;28;20600;-52
2022/11/16 08:22:00;;;;;;;15.23;6.05;;;;;;;8.93;52.76;99336.44;5026285;28;20563;-52
2022/11/16 08:24:29;;;;;;;11.70;5.38;;;;;;;9.36;51.37;99351.38;5024131;28;20045;-56
2022/11/16 08:26:57;;;;;;;10.60;5.47;;;;;;;9.34;51.16;99340.22;5008236;28;20050;-53
2022/11/16 08:29:24;;;;;;;14.00;5.97;;;;;;;9.76;50.94;99351.66;5035412;28;20061;-50
2022/11/16 08:31:51;;;;;;;9.75;5.47;;;;;;;10.13;49.84;99356.34;5027710;28;20041;-50
2022/11/16 08:34:20;;;;;;;11.60;5.85;;;;;;;10.07;47.92;99350.53;5008725;28;20037;-51
2022/11/16 08:36:49;;;;;;;14.32;5.18;;;;;;;9.82;47.81;99354.94;5010190;28;20045;-53
2022/11/16 08:39:17;;;;;;;12.27;5.28;;;;;;;9.55;48.14;99361.97;5026583;28;20045;-57
2022/11/16 08:41:43;;;;;;;10.32;5.00;;;;;;;9.86;47.02;99357.38;5026279;28;20064;-53
2022/11/16 08:44:10;;;;;;;10.45;5.32;;;;;;;10.23;46.34;99367.25;5027151;28;20865;-53
2022/11/16 08:46:38;;;;;;;12.73;5.55;;;;;;;10.40;46.32;99371.81;5027402;28;20053;-54
2022/11/16 08:49:27;;;;;;;9.93;4.68;;;;;;;10.88;45.42;99369.03;5027511;28;20045;-52
2022/11/16 08:51:54;;;;;;;8.68;4.38;;;;;;;11.51;43.64;99375.06;5009509;28;20556;-53
2022/11/16 08:54:20;;;;;;;9.77;4.20;;;;;;;11.87;42.87;99370.88;5026234;28;20086;-53
2022/11/16 08:56:47;;;;;;;6.55;4.28;;;;;;;11.88;41.98;99367.34;5026272;28;20048;-50
2022/11/16 08:59:13;;;;;;;10.75;4.32;;;;;;;11.85;41.67;99372.69;5043826;28;20037;-54
2022/11/16 09:01:45;;;;;;;7.65;4.20;;;;;;;11.59;40.82;99371.22;5041960;28;20128;-51
2022/11/16 09:04:11;;;;;;;7.75;4.68;;;;;;;11.51;40.23;99349.88;5028440;28;20041;-51
2022/11/16 09:06:37;;;;;;;6.60;4.72;;;;;;;11.67;39.94;99376.09;5027994;28;20041;-51
2022/11/16 09:09:03;;;;;;;8.13;4.78;;;;;;;12.01;39.54;99370.25;5025735;28;20539;-54
2022/11/16 09:11:29;;;;;;;8.95;5.00;;;;;;;12.21;38.88;99370.19;5026737;28;20084;-53
2022/11/16 09:13:55;;;;;;;7.80;4.70;;;;;;;12.67;38.54;99366.25;5026930;28;20718;-52
2022/11/16 09:16:22;;;;;;;20.17;9.55;;;;;;;13.14;37.45;99374.41;5026872;28;20045;-50
2022/11/16 09:18:50;;;;;;;15.43;8.63;;;;;;;13.26;36.70;99365.97;5026147;28;20038;-54
2022/11/16 09:21:24;;;;;;;9.90;6.57;;;;;;;13.05;36.63;99312.22;5026951;28;20044;-52
2022/11/16 09:23:51;;;;;;;12.00;5.15;;;;;;;13.70;35.86;99349.81;5026916;28;20073;-52
2022/11/16 09:26:20;;;;;;;9.82;4.95;;;;;;;13.22;35.72;99324.44;5026444;28;20045;-48
2022/11/16 09:28:47;;;;;;;10.00;4.95;;;;;;;13.53;35.33;99364.59;5025619;28;20110;-55
2022/11/16 09:31:12;;;;;;;8.07;4.32;;;;;;;13.71;34.66;99357.53;5028210;28;20038;-54
2022/11/16 09:33:38;;;;;;;7.18;4.10;;;;;;;13.07;34.37;99336.47;5025200;28;20049;-51
2022/11/16 09:36:07;;;;;;;6.95;3.92;;;;;;;12.00;34.58;99352.91;5027443;28;20037;-55
2022/11/16 09:38:34;;;;;;;6.77;3.70;;;;;;;10.23;36.51;99354.28;5030375;28;20057;-55
2022/11/16 09:41:08;;;;;;;5.72;3.13;;;;;;;8.77;37.04;99335.25;5031393;28;20042;-47
2022/11/16 09:43:47;;;;;;;16.38;9.55;;;;;;;7.67;38.47;99327.34;5030754;28;20494;-50
2022/11/16 09:46:13;;;;;;;7.30;3.45;;;;;;;7.12;39.54;99356.44;5031437;28;20041;-53
2022/11/16 09:48:39;;;;;;;8.02;3.67;;;;;;;6.45;40.77;99352.06;5032603;28;20063;-54
2022/11/16 09:51:07;;;;;;;7.78;3.75;;;;;;;5.99;41.13;99347.91;5014138;28;20041;-54
2022/11/16 09:53:42;;;;;;;8.27;3.65;;;;;;;5.71;42.27;99357.06;5030750;28;20128;-50
2022/11/16 09:56:28;;;;;;;8.93;3.55;;;;;;;5.46;42.64;99347.22;5030499;28;20045;-50
2022/11/16 09:59:00;;;;;;;11.82;5.10;;;;;;;5.20;43.39;99346.00;5029306;28;20512;-55
2022/11/16 10:01:33;;;;;;;9.80;5.05;;;;;;;4.66;44.39;99315.19;4997320;28;20045;-55
2022/11/16 10:04:22;;;;;;;13.63;7.28;;;;;;;4.38;44.99;99306.22;5031410;28;20075;-50
2022/11/16 10:06:55;;;;;;;7.78;3.40;;;;;;;4.25;45.19;99344.97;5028382;28;20132;-50
2022/11/16 10:09:21;;;;;;;6.80;3.30;;;;;;;4.01;45.32;99347.06;5029824;28;20051;-49
2022/11/16 10:12:48;;;;;;;7.32;3.90;;;;;;;3.79;45.69;99343.91;5028974;28;20048;-52
2022/11/16 10:15:35;;;;;;;6.85;3.25;;;;;;;3.63;45.96;99350.94;4997328;28;20053;-49
2022/11/16 10:18:26;;;;;;;6.38;2.90;;;;;;;3.48;46.22;99348.56;5030660;28;20035;-52
2022/11/16 10:21:10;;;;;;;9.25;3.95;;;;;;;3.28;46.59;99353.91;5029377;28;20079;-51
2022/11/16 10:24:02;;;;;;;7.30;3.60;;;;;;;3.08;46.95;99357.56;5010365;28;20060;-48
2022/11/16 10:26:34;;;;;;;6.65;2.80;;;;;;;2.95;47.13;99355.09;5027653;28;20100;-54
2022/11/16 10:29:14;;;;;;;7.18;2.88;;;;;;;3.18;46.91;99325.78;5019168;28;20048;-48
2022/11/16 10:31:44;;;;;;;5.60;2.70;;;;;;;5.74;44.04;99351.84;5041079;28;20053;-52
2022/11/16 10:34:21;;;;;;;9.50;2.85;;;;;;;7.70;40.98;99354.88;4996676;28;20037;-52
2022/11/16 10:36:48;;;;;;;5.10;2.40;;;;;;;8.48;39.09;99362.06;5010979;28;20168;-52
2022/11/16 10:39:17;;;;;;;5.90;2.15;;;;;;;9.45;37.68;99311.28;5014787;28;20058;-52
2022/11/16 10:41:46;;;;;;;4.00;2.50;;;;;;;10.66;36.75;99357.81;5018919;28;20069;-56
2022/11/16 10:44:29;;;;;;;5.30;2.85;;;;;;;11.74;34.95;99357.53;5026042;28;20516;-54
2022/11/16 10:47:01;;;;;;;4.70;2.60;;;;;;;12.50;34.40;99363.63;5022319;28;20045;-54
2022/11/16 10:49:46;;;;;;;5.03;3.00;;;;;;;12.83;32.90;99366.38;5024644;28;20035;-49
2022/11/16 10:52:11;;;;;;;4.43;2.78;;;;;;;13.08;32.81;99372.09;5004141;28;20037;-51
2022/11/16 10:54:38;;;;;;;4.28;2.72;;;;;;;13.33;32.67;99364.75;5021094;28;20048;-52
2022/11/16 10:57:07;;;;;;;6.32;3.03;;;;;;;13.75;32.17;99358.25;5022049;28;20049;-53
2022/11/16 10:59:46;;;;;;;8.57;3.78;;;;;;;14.29;31.21;99359.66;5021261;28;20060;-46
2022/11/16 11:02:33;;;;;;;5.43;3.22;;;;;;;14.60;30.99;99367.53;5023706;28;20033;-54
2022/11/16 11:05:20;;;;;;;5.18;3.10;;;;;;;13.95;31.83;99369.34;5044103;28;20041;-53
2022/11/16 11:08:01;;;;;;;4.93;3.05;;;;;;;14.45;31.26;99365.78;5031092;28;20497;-56
2022/11/16 11:10:35;;;;;;;5.57;3.20;;;;;;;14.12;31.33;99362.38;5012907;28;20041;-48
2022/11/16 11:13:01;;;;;;;6.28;3.20;;;;;;;12.98;32.13;99361.25;5029747;28;20052;-53
2022/11/16 11:15:27;;;;;;;8.50;3.63;;;;;;;11.89;32.74;99333.41;5030966;28;20420;-53
2022/11/16 11:18:15;;;;;;;8.82;5.07;;;;;;;11.80;32.68;99352.06;4996712;28;20053;-51
2022/11/16 11:20:43;;;;;;;7.75;3.33;;;;;;;11.30;33.52;99356.84;5029731;28;20668;-53
2022/11/16 11:23:18;;;;;;;9.20;3.83;;;;;;;10.47;33.75;99352.47;5029459;28;20049;-54
2022/11/16 11:25:52;;;;;;;7.78;3.50;;;;;;;9.48;34.76;99360.47;5024584;28;20061;-54
2022/11/16 11:28:34;;;;;;;8.45;3.97;;;;;;;8.63;36.09;99355.56;5021287;28;20128;-54
2022/11/16 11:31:04;;;;;;;6.05;3.60;;;;;;;7.83;37.54;99356.25;5027817;28;20042;-52
2022/11/16 11:33:35;;;;;;;11.20;4.25;;;;;;;6.95;38.65;99331.03;5029172;28;20096;-54
2022/11/16 11:36:20;;;;;;;7.40;4.07;;;;;;;6.65;39.04;99366.19;5012539;28;20045;-51
2022/11/16 11:39:03;;;;;;;8.25;4.00;;;;;;;6.16;40.42;99361.31;5029553;28;20163;-50
2022/11/16 11:42:03;;;;;;;7.22;3.38;;;;;;;5.70;41.23;99358.81;5019245;28;20084;-54
2022/11/16 11:44:40;;;;;;;8.30;3.85;;;;;;;5.38;41.99;99363.72;5026972;28;20057;-55
2022/11/16 11:47:34;;;;;;;6.75;3.75;;;;;;;5.03;42.92;99362.63;5045299;28;20049;-53
2022/11/16 11:50:12;;;;;;;9.93;3.53;;;;;;;4.80;43.27;99367.31;5025794;28;20037;-53
2022/11/16 11:52:46;;;;;;;6.35;4.15;;;;;;;4.62;43.69;99360.72;5018212;28;20076;-52
2022/11/16 11:55:14;;;;;;;10.73;4.40;;;;;;;4.40;44.04;99367.06;5010540;28;20428;-54
2022/11/16 11:57:43;;;;;;;7.10;3.95;;;;;;;4.25;44.50;99360.41;5020216;28;20144;-53
2022/11/16 12:00:13;;;;;;;7.77;3.77;;;;;;;4.07;44.90;99362.41;5012253;28;20087;-53
2022/11/16 12:02:48;;;;;;;7.78;3.55;;;;;;;3.88;45.55;99355.78;5027304;28;20037;-48
2022/11/16 12:05:22;;;;;;;6.32;3.28;;;;;;;3.62;45.59;99354.38;5029264;28;20124;-52
2022/11/16 12:07:51;;;;;;;12.98;3.90;;;;;;;3.43;45.94;99352.91;5009381;28;20151;-55
2022/11/16 12:10:44;;;;;;;9.93;4.60;;;;;;;3.06;46.53;99313.06;5026846;28;20060;-52
2022/11/16 12:13:35;;;;;;;6.38;3.53;;;;;;;3.07;46.93;99348.16;5029135;28;20037;-51
2022/11/16 12:16:11;;;;;;;8.73;3.95;;;;;;;2.88;47.38;99345.72;5010233;28;20041;-50
2022/11/16 12:18:52;;;;;;;5.90;3.67;;;;;;;2.66;47.91;99345.94;5023736;28;20074;-53
2022/11/16 12:21:58;;;;;;;7.68;3.90;;;;;;;2.47;48.26;99340.09;5022378;28;20037;-49
2022/11/16 12:24:30;;;;;;;7.05;3.70;;;;;;;2.31;48.46;99344.47;4964638;28;20051;-52
2022/11/16 12:27:30;;;;;;;7.25;3.10;;;;;;;2.20;48.66;99336.00;5028326;28;20037;-54
2022/11/16 12:29:55;;;;;;;;;;;;;;;2.06;49.10;99340.38;5044830;28;20071;-54
2022/11/16 12:32:24;;;;;;;9.25;3.25;;;;;;;2.04;49.45;99336.97;5029403;28;19921;-52
2022/11/16 12:35:19;;;;;;;7.28;2.90;;;;;;;2.22;48.92;99334.28;5029381;28;20037;-55